Time;durP1;ratioP1;P1;durP2;ratioP2;P2;SDS_P1;SDS_P2;PMS_P1;PMS_P2;Temp;Humidity;BMP_temperature;BMP_pressure;BME280_temperature;BME280_humidity;BME280_pressure;Samples;Min_cycle;Max_cycle;Signal;HPM_P1;HPM_P2
2021/11/18 00:00:48;;;;;;;;;;;18.20;73.90;;;;;;5076265;28;19924;-60
2021/11/18 00:03:15;;;;;;;;;;;18.20;74.00;;;;;;5076516;28;19925;-60
2021/11/18 00:05:42;;;;;;;;;;;18.20;74.00;;;;;;5075967;28;19947;-61
2021/11/18 00:08:10;;;;;;;;;;;18.20;74.00;;;;;;5076276;28;19925;-59
2021/11/18 00:10:39;;;;;;;;;;;18.20;74.00;;;;;;5076134;28;20553;-60
2021/11/18 00:13:08;;;;;;;;;;;18.20;74.00;;;;;;5076270;28;19925;-59
2021/11/18 00:15:35;;;;;;;;;;;18.20;74.00;;;;;;5076888;28;19924;-61
2021/11/18 00:18:06;;;;;;;;;;;18.20;74.00;;;;;;5075984;28;19928;-60
2021/11/18 00:20:35;;;;;;;;;;;18.20;74.00;;;;;;5076269;28;19924;-60
2021/11/18 00:23:03;;;;;;;;;;;18.20;74.00;;;;;;5075114;28;19967;-60
2021/11/18 00:25:30;;;;;;;;;;;18.20;74.00;;;;;;5075830;28;19931;-59
2021/11/18 00:27:57;;;;;;;;;;;18.20;74.00;;;;;;5076071;28;19982;-59
2021/11/18 00:30:24;;;;;;;;;;;18.20;74.70;;;;;;5075683;28;19954;-61
2021/11/18 00:32:51;;;;;;;;;;;18.20;74.00;;;;;;5075620;28;19925;-58
2021/11/18 00:35:20;;;;;;;;;;;18.20;74.00;;;;;;5075896;28;19947;-60
2021/11/18 00:37:48;;;;;;;;;;;18.20;74.00;;;;;;5074981;28;19928;-60
2021/11/18 00:40:17;;;;;;;;;;;18.20;74.00;;;;;;5075536;28;19925;-61
2021/11/18 00:42:44;;;;;;;;;;;18.20;74.00;;;;;;5076023;28;19951;-59
2021/11/18 00:45:12;;;;;;;;;;;18.20;74.00;;;;;;5075521;28;19924;-58
2021/11/18 00:47:39;;;;;;;;;;;18.20;74.00;;;;;;5075030;28;19924;-60
2021/11/18 00:50:06;;;;;;;;;;;18.20;74.00;;;;;;5075637;28;19986;-61
2021/11/18 00:52:33;;;;;;;;;;;18.20;73.90;;;;;;5056443;28;19924;-60
2021/11/18 00:55:00;;;;;;;;;;;18.20;74.00;;;;;;5074975;28;20441;-60
2021/11/18 00:57:27;;;;;;;;;;;18.20;74.00;;;;;;5075547;28;19982;-62
2021/11/18 00:59:54;;;;;;;;;;;18.20;74.00;;;;;;5075315;28;19977;-60
2021/11/18 01:02:21;;;;;;;;;;;18.20;74.00;;;;;;5075408;28;20322;-59
2021/11/18 01:04:49;;;;;;;;;;;18.20;74.00;;;;;;5075024;28;19929;-58
2021/11/18 01:07:16;;;;;;;;;;;18.20;74.00;;;;;;5074538;28;19952;-60
2021/11/18 01:09:43;;;;;;;;;;;18.20;74.00;;;;;;5075235;28;19936;-59
2021/11/18 01:12:10;;;;;;;;;;;18.20;74.00;;;;;;5074904;28;19999;-61
2021/11/18 01:14:38;;;;;;;;;;;18.20;74.00;;;;;;5075078;28;20333;-60
2021/11/18 01:17:05;;;;;;;;;;;18.20;74.00;;;;;;5074776;28;19939;-60
2021/11/18 01:19:32;;;;;;;;;;;18.20;74.00;;;;;;5075051;28;20295;-60
2021/11/18 01:22:00;;;;;;;;;;;18.20;74.00;;;;;;5073791;28;19924;-60
2021/11/18 01:24:28;;;;;;;;;;;18.20;74.00;;;;;;5074770;28;19924;-60
2021/11/18 01:26:55;;;;;;;;;;;18.20;74.00;;;;;;5075185;28;20394;-59
2021/11/18 01:29:22;;;;;;;;;;;18.20;74.00;;;;;;5074430;28;19975;-56
2021/11/18 01:31:49;;;;;;;;;;;18.20;74.00;;;;;;5056826;28;19924;-61
2021/11/18 01:34:17;;;;;;;;;;;18.20;74.00;;;;;;5075211;28;19972;-61
2021/11/18 01:36:44;;;;;;;;;;;18.20;74.00;;;;;;5073623;28;19966;-61
2021/11/18 01:39:11;;;;;;;;;;;18.20;74.00;;;;;;5074362;28;20422;-59
2021/11/18 01:41:39;;;;;;;;;;;18.20;74.00;;;;;;5074846;28;19970;-60
2021/11/18 01:44:12;;;;;;;;;;;18.20;74.00;;;;;;5074266;28;19928;-56
2021/11/18 01:46:40;;;;;;;;;;;18.20;74.00;;;;;;5074519;28;19924;-61
2021/11/18 01:49:10;;;;;;;;;;;18.20;74.00;;;;;;5074526;28;19928;-60
2021/11/18 01:51:41;;;;;;;;;;;18.20;73.90;;;;;;5056790;28;20112;-60
2021/11/18 01:54:09;;;;;;;;;;;18.20;74.00;;;;;;5073434;28;19928;-60
2021/11/18 01:56:37;;;;;;;;;;;18.20;74.00;;;;;;5074134;28;19931;-59
2021/11/18 01:59:15;;;;;;;;;;;18.20;74.00;;;;;;5074206;28;19924;-61
2021/11/18 02:01:44;;;;;;;;;;;18.20;74.00;;;;;;5074019;28;19932;-57
2021/11/18 02:04:13;;;;;;;;;;;18.20;74.00;;;;;;5074846;28;19924;-60
2021/11/18 02:06:46;;;;;;;;;;;18.20;74.00;;;;;;5074303;28;20271;-61
2021/11/18 02:09:15;;;;;;;;;;;18.20;74.00;;;;;;5073671;28;19924;-59
2021/11/18 02:11:44;;;;;;;;;;;18.20;74.00;;;;;;5074223;28;19924;-60
2021/11/18 02:14:14;;;;;;;;;;;18.20;74.00;;;;;;5073798;28;20019;-59
2021/11/18 02:16:42;;;;;;;;;;;18.20;74.00;;;;;;5074144;28;19970;-61
2021/11/18 02:19:09;;;;;;;;;;;18.20;74.00;;;;;;5074143;28;20318;-60
2021/11/18 02:21:38;;;;;;;;;;;18.20;74.00;;;;;;5074126;28;19924;-59
2021/11/18 02:24:06;;;;;;;;;;;18.20;74.00;;;;;;5072874;28;19924;-60
2021/11/18 02:26:33;;;;;;;;;;;18.20;74.00;;;;;;5073742;28;20024;-58
2021/11/18 02:29:03;;;;;;;;;;;18.20;74.00;;;;;;5073892;28;20288;-60
2021/11/18 02:31:32;;;;;;;;;;;18.20;74.00;;;;;;5073682;28;19925;-59
2021/11/18 02:34:00;;;;;;;;;;;18.20;74.00;;;;;;5055870;28;19924;-61
2021/11/18 02:36:28;;;;;;;;;;;18.20;74.00;;;;;;5073643;28;20399;-61
2021/11/18 02:38:55;;;;;;;;;;;18.20;74.00;;;;;;5055248;28;20265;-61
2021/11/18 02:41:22;;;;;;;;;;;18.20;74.00;;;;;;5055885;28;19924;-59
2021/11/18 02:43:50;;;;;;;;;;;18.20;74.00;;;;;;5073775;28;19924;-60
2021/11/18 02:46:17;;;;;;;;;;;18.20;74.00;;;;;;5073531;28;19985;-59
2021/11/18 02:48:45;;;;;;;;;;;18.20;74.00;;;;;;5074646;28;19925;-60
2021/11/18 02:51:12;;;;;;;;;;;18.20;74.00;;;;;;5073790;28;19924;-61
2021/11/18 02:53:40;;;;;;;;;;;18.20;74.00;;;;;;5073374;28;19924;-62
2021/11/18 02:56:08;;;;;;;;;;;18.20;74.00;;;;;;5073962;28;19925;-59
2021/11/18 02:58:35;;;;;;;;;;;18.20;74.00;;;;;;5073937;28;19975;-59
2021/11/18 03:01:05;;;;;;;;;;;18.20;74.00;;;;;;5073400;28;20449;-59
2021/11/18 03:03:32;;;;;;;;;;;18.20;74.00;;;;;;5073375;28;19924;-61
2021/11/18 03:05:59;;;;;;;;;;;18.20;74.00;;;;;;5073337;28;20371;-60
2021/11/18 03:08:26;;;;;;;;;;;18.20;74.00;;;;;;5072697;28;19925;-61
2021/11/18 03:10:54;;;;;;;;;;;18.20;74.00;;;;;;5076840;28;19974;-59
2021/11/18 03:13:22;;;;;;;;;;;18.20;74.00;;;;;;5077446;28;20334;-61
2021/11/18 03:15:49;;;;;;;;;;;18.20;74.00;;;;;;5077342;28;19928;-54
2021/11/18 03:18:17;;;;;;;;;;;18.20;74.00;;;;;;5077334;28;19972;-61
2021/11/18 03:20:44;;;;;;;;;;;18.20;74.00;;;;;;5077356;28;19924;-61
2021/11/18 03:23:11;;;;;;;;;;;18.20;74.10;;;;;;5075913;28;19956;-62
2021/11/18 03:25:39;;;;;;;;;;;18.20;74.00;;;;;;5077248;28;20268;-62
2021/11/18 03:28:07;;;;;;;;;;;18.20;74.00;;;;;;5077262;28;19931;-61
2021/11/18 03:30:35;;;;;;;;;;;18.20;74.00;;;;;;5077144;28;20007;-60
2021/11/18 03:33:05;;;;;;;;;;;18.20;74.10;;;;;;5076734;28;19928;-60
2021/11/18 03:35:32;;;;;;;;;;;18.20;74.00;;;;;;5077046;28;20022;-58
2021/11/18 03:38:00;;;;;;;;;;;18.20;74.00;;;;;;5075764;28;19929;-62
2021/11/18 03:40:29;;;;;;;;;;;18.20;74.00;;;;;;5076978;28;20268;-60
2021/11/18 03:42:56;;;;;;;;;;;18.20;74.00;;;;;;5076602;28;19928;-59
2021/11/18 03:45:24;;;;;;;;;;;18.20;74.00;;;;;;5059193;28;19924;-54
2021/11/18 03:47:51;;;;;;;;;;;18.20;74.10;;;;;;5076516;28;19939;-57
2021/11/18 03:50:18;;;;;;;;;;;18.20;74.00;;;;;;5076478;28;19935;-61
2021/11/18 03:52:46;;;;;;;;;;;18.20;74.00;;;;;;5076251;28;19978;-60
2021/11/18 03:55:13;;;;;;;;;;;18.20;74.00;;;;;;5075283;28;19931;-60
2021/11/18 03:57:41;;;;;;;;;;;18.20;74.00;;;;;;5076738;28;20379;-61
2021/11/18 04:00:09;;;;;;;;;;;18.20;74.00;;;;;;5076547;28;19947;-59
2021/11/18 04:02:37;;;;;;;;;;;18.20;74.00;;;;;;5076609;28;19924;-59
2021/11/18 04:05:05;;;;;;;;;;;18.20;74.00;;;;;;5076254;28;19924;-61
2021/11/18 04:07:38;;;;;;;;;;;18.20;74.00;;;;;;5076201;28;19925;-60
2021/11/18 04:10:06;;;;;;;;;;;18.20;74.00;;;;;;5075575;28;19978;-59
2021/11/18 04:12:39;;;;;;;;;;;18.20;74.00;;;;;;5076447;28;19924;-59
2021/11/18 04:15:08;;;;;;;;;;;18.20;74.00;;;;;;5075983;28;19932;-61
2021/11/18 04:17:35;;;;;;;;;;;18.20;74.00;;;;;;5076324;28;19924;-60
2021/11/18 04:20:03;;;;;;;;;;;18.20;74.00;;;;;;5075556;28;19935;-61
2021/11/18 04:22:30;;;;;;;;;;;18.20;74.00;;;;;;5075046;28;20375;-61
2021/11/18 04:24:57;;;;;;;;;;;18.20;74.00;;;;;;5074983;28;19924;-56
2021/11/18 04:27:24;;;;;;;;;;;18.20;74.00;;;;;;5075795;28;19924;-60
2021/11/18 04:29:51;;;;;;;;;;;18.20;74.00;;;;;;5075644;28;19930;-62
2021/11/18 04:32:20;;;;;;;;;;;18.20;74.00;;;;;;5076014;28;20290;-60
2021/11/18 04:34:47;;;;;;;;;;;18.20;74.00;;;;;;5075928;28;19999;-61
2021/11/18 04:37:14;;;;;;;;;;;18.20;74.00;;;;;;5075951;28;19994;-58
2021/11/18 04:39:42;;;;;;;;;;;18.20;74.00;;;;;;5074828;28;20330;-59
2021/11/18 04:42:09;;;;;;;;;;;18.20;74.00;;;;;;5075842;28;20283;-60
2021/11/18 04:44:36;;;;;;;;;;;18.20;74.00;;;;;;5075508;28;19931;-59
2021/11/18 04:47:07;;;;;;;;;;;18.20;74.00;;;;;;5075703;28;19924;-61
2021/11/18 04:49:34;;;;;;;;;;;18.20;74.00;;;;;;5075413;28;19925;-61
2021/11/18 04:52:02;;;;;;;;;;;18.20;74.00;;;;;;5075656;28;20016;-59
2021/11/18 04:54:30;;;;;;;;;;;18.20;74.10;;;;;;5079604;28;19935;-61
2021/11/18 04:56:57;;;;;;;;;;;18.20;74.00;;;;;;5095337;28;20363;-59
2021/11/18 04:59:24;;;;;;;;;;;18.20;74.00;;;;;;5095323;28;19924;-61
2021/11/18 05:01:51;;;;;;;;;;;18.20;74.00;;;;;;5095405;28;20375;-61
2021/11/18 05:04:19;;;;;;;;;;;18.20;74.00;;;;;;5095305;28;19934;-62
2021/11/18 05:06:46;;;;;;;;;;;18.20;74.00;;;;;;5095571;28;20326;-60
2021/11/18 05:09:14;;;;;;;;;;;18.20;74.00;;;;;;5092951;28;19939;-59
2021/11/18 05:11:41;;;;;;;;;;;18.20;74.00;;;;;;5095507;28;19924;-59
2021/11/18 05:14:09;;;;;;;;;;;18.20;74.00;;;;;;5095045;28;19931;-61
2021/11/18 05:16:36;;;;;;;;;;;18.20;74.00;;;;;;5095083;28;19928;-59
2021/11/18 05:19:03;;;;;;;;;;;18.20;74.00;;;;;;5095061;28;19924;-60
2021/11/18 05:21:31;;;;;;;;;;;18.20;74.00;;;;;;5095299;28;19969;-60
2021/11/18 05:23:59;;;;;;;;;;;18.20;74.00;;;;;;5094994;28;19928;-60
2021/11/18 05:26:26;;;;;;;;;;;18.20;74.00;;;;;;5074145;28;19924;-61
2021/11/18 05:28:54;;;;;;;;;;;18.20;74.00;;;;;;5074794;28;19924;-62
2021/11/18 05:31:22;;;;;;;;;;;18.20;74.00;;;;;;5074523;28;19932;-61
2021/11/18 05:33:50;;;;;;;;;;;18.20;73.90;;;;;;5074378;28;19929;-59
2021/11/18 05:36:18;;;;;;;;;;;18.20;73.90;;;;;;5074438;28;19931;-61
2021/11/18 05:38:46;;;;;;;;;;;18.20;73.90;;;;;;5074415;28;19932;-60
2021/11/18 05:41:14;;;;;;;;;;;18.20;73.90;;;;;;5073760;28;19925;-60
2021/11/18 05:43:42;;;;;;;;;;;18.20;74.00;;;;;;5074614;28;19928;-60
2021/11/18 05:46:10;;;;;;;;;;;18.20;74.00;;;;;;5074265;28;19928;-61
2021/11/18 05:48:38;;;;;;;;;;;18.20;73.90;;;;;;5074544;28;19989;-60
2021/11/18 05:51:06;;;;;;;;;;;18.20;73.90;;;;;;5074542;28;20001;-59
2021/11/18 05:53:37;;;;;;;;;;;18.20;73.90;;;;;;5073972;28;19924;-60
2021/11/18 05:56:07;;;;;;;;;;;18.20;73.90;;;;;;5073069;28;19947;-61
2021/11/18 05:58:35;;;;;;;;;;;18.20;74.00;;;;;;5074331;28;19932;-59
2021/11/18 06:01:04;;;;;;;;;;;18.20;74.00;;;;;;5074041;28;19928;-60
2021/11/18 06:03:31;;;;;;;;;;;18.20;73.90;;;;;;5074315;28;19925;-61
2021/11/18 06:05:58;;;;;;;;;;;18.20;73.90;;;;;;5074294;28;19925;-57
2021/11/18 06:08:25;;;;;;;;;;;18.20;73.90;;;;;;5073926;28;19928;-62
2021/11/18 06:10:52;;;;;;;;;;;18.20;73.90;;;;;;5072955;28;19931;-61
2021/11/18 06:13:19;;;;;;;;;;;18.20;73.90;;;;;;5073841;28;19935;-61
2021/11/18 06:15:47;;;;;;;;;;;18.20;73.90;;;;;;5074097;28;20034;-60
2021/11/18 06:18:14;;;;;;;;;;;18.20;73.90;;;;;;5073849;28;19931;-58
2021/11/18 06:20:41;;;;;;;;;;;18.20;73.90;;;;;;5073772;28;19924;-60
2021/11/18 06:23:09;;;;;;;;;;;18.20;73.90;;;;;;5074080;28;20354;-62
2021/11/18 06:25:37;;;;;;;;;;;18.20;74.60;;;;;;5073628;28;19924;-61
2021/11/18 06:28:07;;;;;;;;;;;18.20;73.90;;;;;;5073589;28;19924;-59
2021/11/18 06:30:40;;;;;;;;;;;18.20;73.90;;;;;;5073679;28;19932;-62
2021/11/18 06:33:08;;;;;;;;;;;18.20;73.90;;;;;;5073481;28;19931;-60
2021/11/18 06:35:35;;;;;;;;;;;18.20;73.90;;;;;;5073857;28;19925;-61
2021/11/18 06:38:19;;;;;;;;;;;18.20;73.90;;;;;;5073921;28;19931;-61
2021/11/18 06:40:47;;;;;;;;;;;18.20;73.90;;;;;;5061332;28;20394;-59
2021/11/18 06:43:14;;;;;;;;;;;18.20;73.80;;;;;;5093766;28;19924;-59
2021/11/18 06:45:44;;;;;;;;;;;18.20;73.90;;;;;;5097233;28;19925;-61
2021/11/18 06:48:15;;;;;;;;;;;18.20;73.80;;;;;;5097910;28;20011;-60
2021/11/18 06:50:42;;;;;;;;;;;18.20;73.80;;;;;;5098217;28;20345;-58
2021/11/18 06:53:09;;;;;;;;;;;18.20;73.80;;;;;;5097666;28;19924;-60
2021/11/18 06:55:36;;;;;;;;;;;18.20;73.80;;;;;;5095150;28;20280;-61
2021/11/18 06:58:04;;;;;;;;;;;18.20;73.80;;;;;;5098121;28;19931;-61
2021/11/18 07:00:31;;;;;;;;;;;18.20;74.50;;;;;;5097982;28;19924;-59
2021/11/18 07:02:58;;;;;;;;;;;18.20;73.70;;;;;;5097529;28;20402;-60
2021/11/18 07:05:25;;;;;;;;;;;18.30;74.50;;;;;;5079691;28;19931;-60
2021/11/18 07:07:52;;;;;;;;;;;18.30;73.80;;;;;;5097868;28;19924;-59
2021/11/18 07:10:21;;;;;;;;;;;18.30;73.70;;;;;;5094869;28;19977;-60
2021/11/18 07:12:52;;;;;;;;;;;18.30;73.70;;;;;;5097478;28;19924;-57
2021/11/18 07:15:20;;;;;;;;;;;18.30;73.70;;;;;;5097546;28;19931;-58
2021/11/18 07:17:52;;;;;;;;;;;18.30;73.60;;;;;;5097652;28;19924;-59
2021/11/18 07:20:19;;;;;;;;;;;18.30;73.60;;;;;;5098659;28;19985;-59
2021/11/18 07:22:46;;;;;;;;;;;18.30;73.50;;;;;;5097073;28;20387;-60
2021/11/18 07:25:15;;;;;;;;;;;18.30;73.50;;;;;;5097780;28;19985;-59
2021/11/18 07:27:43;;;;;;;;;;;18.30;73.50;;;;;;5094939;28;19931;-59
2021/11/18 07:30:10;;;;;;;;;;;18.30;73.40;;;;;;5097383;28;19951;-58
2021/11/18 07:32:38;;;;;;;;;;;18.30;73.30;;;;;;5079121;28;20371;-58
2021/11/18 07:35:06;;;;;;;;;;;18.40;73.40;;;;;;5096896;28;19924;-58
2021/11/18 07:37:33;;;;;;;;;;;18.30;73.20;;;;;;5079048;28;19924;-58
2021/11/18 07:40:02;;;;;;;;;;;18.40;73.40;;;;;;5078970;28;19973;-58
2021/11/18 07:42:29;;;;;;;;;;;18.40;73.40;;;;;;5094373;28;19942;-59
2021/11/18 07:44:56;;;;;;;;;;;18.40;73.40;;;;;;5097155;28;19924;-59
2021/11/18 07:47:23;;;;;;;;;;;18.40;73.30;;;;;;5097106;28;20302;-59
2021/11/18 07:49:50;;;;;;;;;;;18.40;73.20;;;;;;5096636;28;19934;-58
2021/11/18 07:52:18;;;;;;;;;;;18.40;73.20;;;;;;5078852;28;19931;-60
2021/11/18 07:54:45;;;;;;;;;;;18.40;73.20;;;;;;5078198;28;19924;-58
2021/11/18 07:57:12;;;;;;;;;;;18.40;73.10;;;;;;5076111;28;19924;-60
2021/11/18 07:59:39;;;;;;;;;;;18.40;73.10;;;;;;5096736;28;19932;-58
2021/11/18 08:02:06;;;;;;;;;;;18.40;73.10;;;;;;5096540;28;19973;-58
2021/11/18 08:04:34;;;;;;;;;;;18.40;73.10;;;;;;5096791;28;19964;-59
2021/11/18 08:07:04;;;;;;;;;;;18.40;73.10;;;;;;5078578;28;20429;-60
2021/11/18 08:09:31;;;;;;;;;;;18.40;73.00;;;;;;5096667;28;20015;-58
2021/11/18 08:11:59;;;;;;;;;;;18.50;73.10;;;;;;5093904;28;20010;-60
2021/11/18 08:14:26;;;;;;;;;;;18.50;73.10;;;;;;5095659;28;20015;-58
2021/11/18 08:16:55;;;;;;;;;;;18.40;73.00;;;;;;5096022;28;19974;-58
2021/11/18 08:19:22;;;;;;;;;;;18.50;73.10;;;;;;5078192;28;19986;-57
2021/11/18 08:21:50;;;;;;;;;;;18.50;73.10;;;;;;5077969;28;19928;-59
2021/11/18 08:24:18;;;;;;;;;;;18.40;73.00;;;;;;5095976;28;20014;-61
2021/11/18 08:26:46;;;;;;;;;;;18.40;72.90;;;;;;5087685;28;19931;-62
2021/11/18 08:29:14;;;;;;;;;;;18.40;72.90;;;;;;5058022;28;19931;-60
2021/11/18 08:31:41;;;;;;;;;;;18.40;72.90;;;;;;5075909;28;20330;-59
2021/11/18 08:34:09;;;;;;;;;;;18.40;72.90;;;;;;5057980;28;19978;-59
2021/11/18 08:36:37;;;;;;;;;;;18.50;72.90;;;;;;5075573;28;19925;-59
2021/11/18 08:39:06;;;;;;;;;;;18.50;72.90;;;;;;5075516;28;20011;-60
2021/11/18 08:41:33;;;;;;;;;;;18.50;72.80;;;;;;5076767;28;19928;-59
2021/11/18 08:44:01;;;;;;;;;;;18.50;72.80;;;;;;5095902;28;19928;-59
2021/11/18 08:46:29;;;;;;;;;;;18.50;72.70;;;;;;5078010;28;20004;-58
2021/11/18 08:49:03;;;;;;;;;;;18.50;72.70;;;;;;5095480;28;19924;-58
2021/11/18 08:51:33;;;;;;;;;;;18.50;72.60;;;;;;5077704;28;19924;-59
2021/11/18 08:54:04;;;;;;;;;;;18.50;72.60;;;;;;5095501;28;19993;-57
2021/11/18 08:56:31;;;;;;;;;;;18.60;72.60;;;;;;5093059;28;19969;-58
2021/11/18 08:58:59;;;;;;;;;;;18.60;72.60;;;;;;5095586;28;20329;-60
2021/11/18 09:01:31;;;;;;;;;;;18.60;72.60;;;;;;5077527;28;19931;-61
2021/11/18 09:04:04;;;;;;;;;;;18.60;72.60;;;;;;5095620;28;19924;-60
2021/11/18 09:06:31;;;;;;;;;;;18.60;72.50;;;;;;5095051;28;19977;-61
2021/11/18 09:08:58;;;;;;;;;;;18.60;72.50;;;;;;5095847;28;19924;-59
2021/11/18 09:11:27;;;;;;;;;;;18.60;72.40;;;;;;5094641;28;19946;-59
2021/11/18 09:13:54;;;;;;;;;;;18.60;72.40;;;;;;5076418;28;19924;-61
2021/11/18 09:16:23;;;;;;;;;;;18.60;72.40;;;;;;5095233;28;19924;-61
2021/11/18 09:18:50;;;;;;;;;;;18.60;72.40;;;;;;5095043;28;19924;-61
2021/11/18 09:21:18;;;;;;;;;;;18.60;72.30;;;;;;5094894;28;20493;-60
2021/11/18 09:23:47;;;;;;;;;;;18.60;72.30;;;;;;5076878;28;20410;-59
2021/11/18 09:26:15;;;;;;;;;;;18.60;72.30;;;;;;5095109;28;19928;-60
2021/11/18 09:28:42;;;;;;;;;;;18.60;72.30;;;;;;5092267;28;19924;-59
2021/11/18 09:31:11;;;;;;;;;;;18.60;72.20;;;;;;5094744;28;19924;-60
2021/11/18 09:33:39;;;;;;;;;;;18.70;72.30;;;;;;5095053;28;20015;-59
2021/11/18 09:36:10;;;;;;;;;;;18.70;72.30;;;;;;5094898;28;19967;-61
2021/11/18 09:38:40;;;;;;;;;;;18.70;72.30;;;;;;5094983;28;19924;-60
2021/11/18 09:41:18;;;;;;;;;;;18.60;72.20;;;;;;5094591;28;19931;-60
2021/11/18 09:43:54;;;;;;;;;;;18.60;72.20;;;;;;5073927;28;20348;-60
2021/11/18 09:46:31;;;;;;;;;;;18.70;72.20;;;;;;5094538;28;19934;-60
2021/11/18 09:49:08;;;;;;;;;;;18.60;71.90;;;;;;5094418;28;19977;-61
2021/11/18 09:51:55;;;;;;;;;;;18.70;72.00;;;;;;5075928;28;19924;-61
2021/11/18 09:54:25;;;;;;;;;;;18.60;71.90;;;;;;5094138;28;19973;-61
2021/11/18 09:57:08;;;;;;;;;;;18.70;72.10;;;;;;5094328;28;20264;-59
2021/11/18 09:59:53;;;;;;;;;;;18.70;72.10;;;;;;5053933;28;20438;-60
2021/11/18 10:02:32;;;;;;;;;;;18.60;71.90;;;;;;5054144;28;19928;-61
2021/11/18 10:05:00;;;;;;;;;;;18.60;71.90;;;;;;5070805;28;20007;-60
2021/11/18 10:07:34;;;;;;;;;;;18.60;71.90;;;;;;5071200;28;19924;-59
2021/11/18 10:10:06;;;;;;;;;;;18.60;71.90;;;;;;5071113;28;19964;-57
2021/11/18 10:12:42;;;;;;;;;;;18.60;71.90;;;;;;5071074;28;19951;-61
2021/11/18 10:15:10;;;;;;;;;;;18.60;72.00;;;;;;5071158;28;19928;-60
2021/11/18 10:17:45;;;;;;;;;;;18.60;71.90;;;;;;5073265;28;20306;-60
2021/11/18 10:20:14;;;;;;;;;;;18.70;72.00;;;;;;5056094;28;20026;-61
2021/11/18 10:22:48;;;;;;;;;;;18.70;72.00;;;;;;5073591;28;19974;-61
2021/11/18 10:25:19;;;;;;;;;;;18.60;72.00;;;;;;5073878;28;19963;-61
2021/11/18 10:27:56;;;;;;;;;;;18.60;72.00;;;;;;5073070;28;19952;-60
2021/11/18 10:30:44;;;;;;;;;;;18.60;72.00;;;;;;5073607;28;19924;-61
2021/11/18 10:33:14;;;;;;;;;;;18.60;72.10;;;;;;5073611;28;19971;-59
2021/11/18 10:35:41;;;;;;;;;;;18.60;72.10;;;;;;5056039;28;19925;-61
2021/11/18 10:38:22;;;;;;;;;;;18.60;72.10;;;;;;5073643;28;19935;-61
2021/11/18 10:40:53;;;;;;;;;;;18.60;72.10;;;;;;5073594;28;19924;-60
2021/11/18 10:43:21;;;;;;;;;;;18.60;72.00;;;;;;5072628;28;20379;-58
2021/11/18 10:45:58;;;;;;;;;;;18.60;72.00;;;;;;5073445;28;19924;-58
2021/11/18 10:48:25;;;;;;;;;;;18.60;72.00;;;;;;5073420;28;19931;-61
2021/11/18 10:50:55;;;;;;;;;;;18.70;72.00;;;;;;5073673;28;19924;-60
2021/11/18 10:53:27;;;;;;;;;;;18.60;71.80;;;;;;5073587;28;20260;-57
2021/11/18 10:56:04;;;;;;;;;;;18.70;71.80;;;;;;5073645;28;19924;-59
2021/11/18 10:58:39;;;;;;;;;;;18.70;71.80;;;;;;5072961;28;19928;-58
2021/11/18 11:01:34;;;;;;;;;;;18.70;71.80;;;;;;5055928;28;19925;-60
2021/11/18 11:04:04;;;;;;;;;;;18.70;71.80;;;;;;5071717;28;19928;-58
2021/11/18 11:06:40;;;;;;;;;;;18.70;71.80;;;;;;5073584;28;20415;-59
2021/11/18 11:09:21;;;;;;;;;;;18.70;71.80;;;;;;5073168;28;19924;-58
2021/11/18 11:12:04;;;;;;;;;;;18.70;71.80;;;;;;5073661;28;19925;-60
2021/11/18 11:14:36;;;;;;;;;;;18.60;71.80;;;;;;5054597;28;20445;-58
2021/11/18 11:17:23;;;;;;;;;;;18.70;71.90;;;;;;5073209;28;19929;-58
2021/11/18 11:19:56;;;;;;;;;;;18.70;71.90;;;;;;5073285;28;19932;-59
2021/11/18 11:22:33;;;;;;;;;;;18.60;71.80;;;;;;5074339;28;19932;-59
2021/11/18 11:25:05;;;;;;;;;;;18.70;72.00;;;;;;5073372;28;19930;-58
2021/11/18 11:27:51;;;;;;;;;;;18.60;71.90;;;;;;5073336;28;19924;-59
2021/11/18 11:30:50;;;;;;;;;;;18.70;71.90;;;;;;5073928;28;19924;-59
2021/11/18 11:33:29;;;;;;;;;;;18.60;71.80;;;;;;5076763;28;19925;-59
2021/11/18 11:36:07;;;;;;;;;;;18.70;71.90;;;;;;5076990;28;19964;-59
2021/11/18 11:38:41;;;;;;;;;;;18.60;71.90;;;;;;5076797;28;19924;-59
2021/11/18 11:41:26;;;;;;;;;;;18.70;72.00;;;;;;5076731;28;20042;-60
2021/11/18 11:43:59;;;;;;;;;;;18.60;71.90;;;;;;5058412;28;19925;-60
2021/11/18 11:46:38;;;;;;;;;;;18.70;71.90;;;;;;5076951;28;19928;-59
2021/11/18 11:49:05;;;;;;;;;;;18.60;71.80;;;;;;5076558;28;19924;-56
2021/11/18 11:51:35;;;;;;;;;;;18.70;71.90;;;;;;5076488;28;19929;-59
2021/11/18 11:54:09;;;;;;;;;;;18.60;72.50;;;;;;5076279;28;19924;-58
2021/11/18 11:56:38;;;;;;;;;;;18.70;71.90;;;;;;5076161;28;19970;-58
2021/11/18 11:59:11;;;;;;;;;;;18.60;71.80;;;;;;5075707;28;19924;-59
2021/11/18 12:01:52;;;;;;;;;;;18.70;71.90;;;;;;5076659;28;20323;-58
2021/11/18 12:04:20;;;;;;;;;;;18.70;71.90;;;;;;5076342;28;19939;-57
2021/11/18 12:07:05;;;;;;;;;;;18.70;72.00;;;;;;5076232;28;19928;-58
2021/11/18 12:09:51;;;;;;;;;;;18.70;72.00;;;;;;5076191;28;19951;-60
2021/11/18 12:12:30;;;;;;;;;;;18.60;71.80;;;;;;5076489;28;19924;-60
2021/11/18 12:14:58;;;;;;;;;;;18.60;71.90;;;;;;5075390;28;19929;-60
2021/11/18 12:17:35;;;;;;;;;;;18.60;71.90;;;;;;5076285;28;19932;-60
2021/11/18 12:20:07;;;;;;;;;;;18.60;71.90;;;;;;5076327;28;20302;-59
2021/11/18 12:22:37;;;;;;;;;;;18.70;72.00;;;;;;5076902;28;19924;-61
2021/11/18 12:25:13;;;;;;;;;;;18.70;72.00;;;;;;5075930;28;19925;-60
2021/11/18 12:27:49;;;;;;;;;;;18.60;71.90;;;;;;5075933;28;19954;-60
2021/11/18 12:30:16;;;;;;;;;;;18.60;71.90;;;;;;5074599;28;19985;-59
2021/11/18 12:32:53;;;;;;;;;;;18.60;71.90;;;;;;5058078;28;19935;-60
2021/11/18 12:35:26;;;;;;;;;;;18.60;71.90;;;;;;5076078;28;19924;-62
2021/11/18 12:37:55;;;;;;;;;;;18.60;72.00;;;;;;5075674;28;19924;-57
2021/11/18 12:40:40;;;;;;;;;;;18.60;71.90;;;;;;5075887;28;19928;-60
2021/11/18 12:43:21;;;;;;;;;;;18.60;71.90;;;;;;5074371;28;19928;-62
2021/11/18 12:45:52;;;;;;;;;;;18.60;72.00;;;;;;5074664;28;19924;-60
2021/11/18 12:48:19;;;;;;;;;;;18.70;72.10;;;;;;5076350;28;19925;-60
2021/11/18 12:50:49;;;;;;;;;;;18.70;72.10;;;;;;5075419;28;19924;-61
2021/11/18 12:53:21;;;;;;;;;;;18.60;72.00;;;;;;5075125;28;19928;-60
2021/11/18 12:56:06;;;;;;;;;;;18.60;72.00;;;;;;5075175;28;19964;-60
2021/11/18 12:58:44;;;;;;;;;;;18.60;72.00;;;;;;5075443;28;20299;-59
2021/11/18 13:01:20;;;;;;;;;;;18.70;72.10;;;;;;5074079;28;19928;-58
2021/11/18 13:03:51;;;;;;;;;;;18.60;72.00;;;;;;5075406;28;19958;-60
2021/11/18 13:06:32;;;;;;;;;;;18.60;72.00;;;;;;5074483;28;20143;-59
2021/11/18 13:09:00;;;;;;;;;;;18.60;72.00;;;;;;5075333;28;19925;-58
2021/11/18 13:11:27;;;;;;;;;;;18.60;72.00;;;;;;5074961;28;20007;-59
2021/11/18 13:14:13;;;;;;;;;;;18.60;72.10;;;;;;5074912;28;19931;-58
2021/11/18 13:16:46;;;;;;;;;;;18.60;72.00;;;;;;5075173;28;20325;-62
2021/11/18 13:19:23;;;;;;;;;;;18.60;72.00;;;;;;5074847;28;19928;-60
2021/11/18 13:21:50;;;;;;;;;;;18.60;72.10;;;;;;5059006;28;19932;-62
2021/11/18 13:24:39;;;;;;;;;;;18.60;72.10;;;;;;5074590;28;19924;-59
2021/11/18 13:27:10;;;;;;;;;;;18.60;72.10;;;;;;5075043;28;20264;-56
2021/11/18 13:29:57;;;;;;;;;;;18.60;72.10;;;;;;5074162;28;19993;-59
2021/11/18 13:32:27;;;;;;;;;;;18.60;72.20;;;;;;5074892;28;19925;-61
2021/11/18 13:35:10;;;;;;;;;;;18.60;72.20;;;;;;5074579;28;19925;-62
2021/11/18 13:37:39;;;;;;;;;;;18.60;72.20;;;;;;5056711;28;19970;-60
2021/11/18 13:40:09;;;;;;;;;;;18.60;72.20;;;;;;5074767;28;19924;-62
2021/11/18 13:42:38;;;;;;;;;;;18.60;72.20;;;;;;5075494;28;19932;-59
2021/11/18 13:45:14;;;;;;;;;;;18.60;72.20;;;;;;5073636;28;19924;-59
2021/11/18 13:48:04;;;;;;;;;;;18.50;72.20;;;;;;5074595;28;20015;-61
2021/11/18 13:50:34;;;;;;;;;;;18.50;72.20;;;;;;5074623;28;19928;-59
2021/11/18 13:53:06;;;;;;;;;;;18.50;72.20;;;;;;5073962;28;19932;-59
2021/11/18 13:55:59;;;;;;;;;;;18.50;72.30;;;;;;5069687;28;19929;-59
2021/11/18 13:58:32;;;;;;;;;;;18.50;72.30;;;;;;5056651;28;20064;-58
2021/11/18 14:01:26;;;;;;;;;;;18.50;72.30;;;;;;5058240;28;20027;-60
2021/11/18 14:03:56;;;;;;;;;;;18.50;72.40;;;;;;5056831;28;19975;-61
2021/11/18 14:06:28;;;;;;;;;;;18.50;72.40;;;;;;5074236;28;19929;-61
2021/11/18 14:08:58;;;;;;;;;;;18.50;72.40;;;;;;5073914;28;19931;-59
2021/11/18 14:11:27;;;;;;;;;;;18.50;72.40;;;;;;5073916;28;19929;-60
2021/11/18 14:14:01;;;;;;;;;;;18.50;72.40;;;;;;5073912;28;19924;-60
2021/11/18 14:16:33;;;;;;;;;;;18.50;72.50;;;;;;5073002;28;19986;-62
2021/11/18 14:19:25;;;;;;;;;;;18.50;72.50;;;;;;5073830;28;19924;-60
2021/11/18 14:22:11;;;;;;;;;;;18.50;72.50;;;;;;5073808;28;19928;-61
2021/11/18 14:24:43;;;;;;;;;;;18.50;72.50;;;;;;5073990;28;19924;-60
2021/11/18 14:27:16;;;;;;;;;;;18.40;72.50;;;;;;5073672;28;19973;-60
2021/11/18 14:30:03;;;;;;;;;;;18.50;72.60;;;;;;5056327;28;19932;-60
2021/11/18 14:32:32;;;;;;;;;;;18.50;72.60;;;;;;5073781;28;19925;-62
2021/11/18 14:35:17;;;;;;;;;;;18.50;72.60;;;;;;5073643;28;20371;-62